sensor_id;sensor_type;location;lat;lon;timestamp;P1;durP1;ratioP1;P2;durP2;ratioP2
33814;SDS011;20121;51.910;8.406;2022-09-11T00:00:44;7.65;;;5.15;;
33814;SDS011;20121;51.910;8.406;2022-09-11T00:03:12;8.88;;;4.72;;
33814;SDS011;20121;51.910;8.406;2022-09-11T00:05:38;4.77;;;4.30;;
33814;SDS011;20121;51.910;8.406;2022-09-11T00:08:06;6.30;;;5.03;;
33814;SDS011;20121;51.910;8.406;2022-09-11T00:10:34;6.65;;;4.55;;
33814;SDS011;20121;51.910;8.406;2022-09-11T00:13:01;7.47;;;4.50;;
33814;SDS011;20121;51.910;8.406;2022-09-11T00:15:28;6.72;;;5.45;;
33814;SDS011;20121;51.910;8.406;2022-09-11T00:17:55;6.97;;;4.67;;
33814;SDS011;20121;51.910;8.406;2022-09-11T00:20:21;11.95;;;5.47;;
33814;SDS011;20121;51.910;8.406;2022-09-11T00:22:47;6.67;;;5.10;;
33814;SDS011;20121;51.910;8.406;2022-09-11T00:25:13;5.43;;;4.70;;
33814;SDS011;20121;51.910;8.406;2022-09-11T00:27:39;8.83;;;6.70;;
33814;SDS011;20121;51.910;8.406;2022-09-11T00:30:04;6.67;;;5.07;;
33814;SDS011;20121;51.910;8.406;2022-09-11T00:32:30;7.43;;;5.32;;
33814;SDS011;20121;51.910;8.406;2022-09-11T00:34:57;7.70;;;5.25;;
33814;SDS011;20121;51.910;8.406;2022-09-11T00:37:23;10.83;;;6.13;;
33814;SDS011;20121;51.910;8.406;2022-09-11T00:39:48;7.20;;;5.40;;
33814;SDS011;20121;51.910;8.406;2022-09-11T00:42:14;10.17;;;6.27;;
33814;SDS011;20121;51.910;8.406;2022-09-11T00:47:06;7.87;;;5.60;;
33814;SDS011;20121;51.910;8.406;2022-09-11T00:49:41;6.45;;;4.90;;
33814;SDS011;20121;51.910;8.406;2022-09-11T00:52:12;7.38;;;5.70;;
33814;SDS011;20121;51.910;8.406;2022-09-11T00:54:49;7.63;;;4.40;;
33814;SDS011;20121;51.910;8.406;2022-09-11T00:57:21;9.93;;;5.18;;
33814;SDS011;20121;51.910;8.406;2022-09-11T00:59:51;9.48;;;6.13;;
33814;SDS011;20121;51.910;8.406;2022-09-11T01:02:19;8.80;;;6.85;;
33814;SDS011;20121;51.910;8.406;2022-09-11T01:04:47;8.18;;;5.22;;
33814;SDS011;20121;51.910;8.406;2022-09-11T01:07:14;7.13;;;5.47;;
33814;SDS011;20121;51.910;8.406;2022-09-11T01:09:43;9.02;;;5.82;;
33814;SDS011;20121;51.910;8.406;2022-09-11T01:14:49;9.40;;;5.70;;
33814;SDS011;20121;51.910;8.406;2022-09-11T01:28:22;10.55;;;5.03;;
33814;SDS011;20121;51.910;8.406;2022-09-11T01:31:00;9.32;;;6.60;;
33814;SDS011;20121;51.910;8.406;2022-09-11T01:33:42;6.13;;;4.22;;
33814;SDS011;20121;51.910;8.406;2022-09-11T01:36:13;8.13;;;6.03;;
33814;SDS011;20121;51.910;8.406;2022-09-11T01:44:16;7.78;;;5.13;;
33814;SDS011;20121;51.910;8.406;2022-09-11T01:46:47;8.10;;;6.50;;
33814;SDS011;20121;51.910;8.406;2022-09-11T01:49:17;13.15;;;7.72;;
33814;SDS011;20121;51.910;8.406;2022-09-11T01:51:47;12.23;;;6.38;;
33814;SDS011;20121;51.910;8.406;2022-09-11T01:54:17;10.50;;;6.47;;
33814;SDS011;20121;51.910;8.406;2022-09-11T01:56:49;8.18;;;5.88;;
33814;SDS011;20121;51.910;8.406;2022-09-11T01:59:35;12.63;;;7.03;;
33814;SDS011;20121;51.910;8.406;2022-09-11T02:02:05;11.98;;;7.00;;
33814;SDS011;20121;51.910;8.406;2022-09-11T02:04:40;12.00;;;7.10;;
33814;SDS011;20121;51.910;8.406;2022-09-11T02:07:14;13.20;;;7.78;;
33814;SDS011;20121;51.910;8.406;2022-09-11T02:10:07;11.05;;;7.50;;
33814;SDS011;20121;51.910;8.406;2022-09-11T02:12:40;10.55;;;6.38;;
33814;SDS011;20121;51.910;8.406;2022-09-11T02:15:12;12.88;;;6.45;;
33814;SDS011;20121;51.910;8.406;2022-09-11T02:20:05;9.70;;;5.70;;
33814;SDS011;20121;51.910;8.406;2022-09-11T02:22:33;17.75;;;7.85;;
33814;SDS011;20121;51.910;8.406;2022-09-11T02:25:00;7.50;;;6.75;;
33814;SDS011;20121;51.910;8.406;2022-09-11T02:27:27;11.95;;;7.18;;
33814;SDS011;20121;51.910;8.406;2022-09-11T02:29:55;8.43;;;6.70;;
33814;SDS011;20121;51.910;8.406;2022-09-11T02:32:22;11.50;;;7.28;;
33814;SDS011;20121;51.910;8.406;2022-09-11T02:34:50;10.20;;;7.55;;
33814;SDS011;20121;51.910;8.406;2022-09-11T02:45:44;7.97;;;6.75;;
33814;SDS011;20121;51.910;8.406;2022-09-11T02:51:20;17.25;;;6.80;;
33814;SDS011;20121;51.910;8.406;2022-09-11T02:54:09;10.20;;;7.78;;
33814;SDS011;20121;51.910;8.406;2022-09-11T02:57:01;14.57;;;6.88;;
33814;SDS011;20121;51.910;8.406;2022-09-11T02:59:52;10.52;;;5.80;;
33814;SDS011;20121;51.910;8.406;2022-09-11T03:02:26;7.63;;;5.97;;
33814;SDS011;20121;51.910;8.406;2022-09-11T03:04:53;7.38;;;5.95;;
33814;SDS011;20121;51.910;8.406;2022-09-11T03:07:20;11.55;;;7.18;;
33814;SDS011;20121;51.910;8.406;2022-09-11T03:09:46;17.77;;;9.77;;
33814;SDS011;20121;51.910;8.406;2022-09-11T03:12:12;11.37;;;7.97;;
33814;SDS011;20121;51.910;8.406;2022-09-11T03:14:38;10.27;;;6.63;;
33814;SDS011;20121;51.910;8.406;2022-09-11T03:17:04;10.73;;;7.70;;
33814;SDS011;20121;51.910;8.406;2022-09-11T03:19:30;15.27;;;8.40;;
33814;SDS011;20121;51.910;8.406;2022-09-11T03:21:56;10.33;;;6.80;;
33814;SDS011;20121;51.910;8.406;2022-09-11T03:24:21;13.20;;;7.10;;
33814;SDS011;20121;51.910;8.406;2022-09-11T03:26:47;12.87;;;9.10;;
33814;SDS011;20121;51.910;8.406;2022-09-11T03:29:13;9.80;;;6.00;;
33814;SDS011;20121;51.910;8.406;2022-09-11T03:31:39;16.17;;;7.80;;
33814;SDS011;20121;51.910;8.406;2022-09-11T03:34:05;12.77;;;8.57;;
33814;SDS011;20121;51.910;8.406;2022-09-11T03:36:31;22.77;;;10.00;;
33814;SDS011;20121;51.910;8.406;2022-09-11T03:38:58;21.33;;;9.70;;
33814;SDS011;20121;51.910;8.406;2022-09-11T03:41:24;15.57;;;6.93;;
33814;SDS011;20121;51.910;8.406;2022-09-11T03:43:50;17.47;;;8.80;;
33814;SDS011;20121;51.910;8.406;2022-09-11T03:46:16;20.73;;;12.75;;
33814;SDS011;20121;51.910;8.406;2022-09-11T03:48:42;21.53;;;10.63;;
33814;SDS011;20121;51.910;8.406;2022-09-11T03:51:11;15.70;;;9.35;;
33814;SDS011;20121;51.910;8.406;2022-09-11T03:53:40;20.00;;;10.05;;
33814;SDS011;20121;51.910;8.406;2022-09-11T03:56:06;18.65;;;10.55;;
33814;SDS011;20121;51.910;8.406;2022-09-11T03:58:32;17.53;;;9.90;;
33814;SDS011;20121;51.910;8.406;2022-09-11T04:00:58;18.20;;;9.80;;
33814;SDS011;20121;51.910;8.406;2022-09-11T04:03:24;25.20;;;11.97;;
33814;SDS011;20121;51.910;8.406;2022-09-11T04:05:59;24.97;;;11.10;;
33814;SDS011;20121;51.910;8.406;2022-09-11T04:08:26;30.38;;;11.75;;
33814;SDS011;20121;51.910;8.406;2022-09-11T04:10:57;19.95;;;10.90;;
33814;SDS011;20121;51.910;8.406;2022-09-11T04:13:34;19.48;;;10.63;;
33814;SDS011;20121;51.910;8.406;2022-09-11T04:16:03;25.75;;;11.85;;
33814;SDS011;20121;51.910;8.406;2022-09-11T04:18:32;15.85;;;10.02;;
33814;SDS011;20121;51.910;8.406;2022-09-11T04:21:07;25.85;;;11.40;;
33814;SDS011;20121;51.910;8.406;2022-09-11T04:23:37;26.67;;;9.20;;
33814;SDS011;20121;51.910;8.406;2022-09-11T04:26:08;19.08;;;8.48;;
33814;SDS011;20121;51.910;8.406;2022-09-11T04:28:40;24.38;;;10.50;;
33814;SDS011;20121;51.910;8.406;2022-09-11T04:31:05;23.80;;;11.40;;
33814;SDS011;20121;51.910;8.406;2022-09-11T04:33:31;20.00;;;10.53;;
33814;SDS011;20121;51.910;8.406;2022-09-11T04:36:02;18.25;;;10.27;;
33814;SDS011;20121;51.910;8.406;2022-09-11T04:38:29;16.98;;;9.48;;
33814;SDS011;20121;51.910;8.406;2022-09-11T04:40:58;21.60;;;9.20;;
33814;SDS011;20121;51.910;8.406;2022-09-11T04:43:24;19.42;;;9.63;;
33814;SDS011;20121;51.910;8.406;2022-09-11T04:45:51;13.20;;;10.27;;
33814;SDS011;20121;51.910;8.406;2022-09-11T04:48:18;21.83;;;9.27;;
33814;SDS011;20121;51.910;8.406;2022-09-11T04:50:43;27.73;;;12.80;;
33814;SDS011;20121;51.910;8.406;2022-09-11T04:53:09;18.87;;;9.60;;
33814;SDS011;20121;51.910;8.406;2022-09-11T04:55:34;18.60;;;9.30;;
33814;SDS011;20121;51.910;8.406;2022-09-11T04:58:00;18.37;;;11.13;;
33814;SDS011;20121;51.910;8.406;2022-09-11T05:00:26;19.90;;;10.53;;
33814;SDS011;20121;51.910;8.406;2022-09-11T05:02:52;26.60;;;11.32;;
33814;SDS011;20121;51.910;8.406;2022-09-11T05:05:18;24.38;;;12.25;;
33814;SDS011;20121;51.910;8.406;2022-09-11T05:07:47;20.53;;;9.60;;
33814;SDS011;20121;51.910;8.406;2022-09-11T05:10:13;29.75;;;12.63;;
33814;SDS011;20121;51.910;8.406;2022-09-11T05:12:40;25.42;;;14.57;;
33814;SDS011;20121;51.910;8.406;2022-09-11T05:15:06;24.50;;;12.10;;
33814;SDS011;20121;51.910;8.406;2022-09-11T05:17:32;33.10;;;12.10;;
33814;SDS011;20121;51.910;8.406;2022-09-11T05:19:58;21.65;;;9.60;;
33814;SDS011;20121;51.910;8.406;2022-09-11T05:22:24;27.50;;;12.40;;
33814;SDS011;20121;51.910;8.406;2022-09-11T05:24:49;26.40;;;11.63;;
33814;SDS011;20121;51.910;8.406;2022-09-11T05:27:15;25.13;;;11.00;;
33814;SDS011;20121;51.910;8.406;2022-09-11T05:29:41;15.97;;;9.23;;
33814;SDS011;20121;51.910;8.406;2022-09-11T05:32:06;23.87;;;11.20;;
33814;SDS011;20121;51.910;8.406;2022-09-11T05:34:32;21.10;;;9.80;;
33814;SDS011;20121;51.910;8.406;2022-09-11T05:36:58;20.93;;;9.27;;
33814;SDS011;20121;51.910;8.406;2022-09-11T05:39:23;30.57;;;9.90;;
33814;SDS011;20121;51.910;8.406;2022-09-11T05:41:50;29.50;;;12.63;;
33814;SDS011;20121;51.910;8.406;2022-09-11T05:44:16;31.27;;;10.07;;
33814;SDS011;20121;51.910;8.406;2022-09-11T05:46:42;22.92;;;10.75;;
33814;SDS011;20121;51.910;8.406;2022-09-11T05:49:08;18.93;;;10.70;;
33814;SDS011;20121;51.910;8.406;2022-09-11T05:51:33;21.70;;;12.00;;
33814;SDS011;20121;51.910;8.406;2022-09-11T05:54:02;20.13;;;11.85;;
33814;SDS011;20121;51.910;8.406;2022-09-11T05:56:28;30.52;;;11.95;;
33814;SDS011;20121;51.910;8.406;2022-09-11T05:58:54;27.13;;;10.17;;
33814;SDS011;20121;51.910;8.406;2022-09-11T06:01:21;38.70;;;12.97;;
33814;SDS011;20121;51.910;8.406;2022-09-11T06:03:47;20.02;;;9.27;;
33814;SDS011;20121;51.910;8.406;2022-09-11T06:06:14;23.80;;;12.18;;
33814;SDS011;20121;51.910;8.406;2022-09-11T06:08:41;20.13;;;9.50;;
33814;SDS011;20121;51.910;8.406;2022-09-11T06:11:12;21.58;;;11.48;;
33814;SDS011;20121;51.910;8.406;2022-09-11T06:13:40;19.83;;;10.45;;
33814;SDS011;20121;51.910;8.406;2022-09-11T06:16:09;32.30;;;13.43;;
33814;SDS011;20121;51.910;8.406;2022-09-11T06:18:35;20.98;;;10.30;;
33814;SDS011;20121;51.910;8.406;2022-09-11T06:21:02;28.27;;;11.03;;
33814;SDS011;20121;51.910;8.406;2022-09-11T06:23:34;19.15;;;10.75;;
33814;SDS011;20121;51.910;8.406;2022-09-11T06:26:03;17.27;;;8.90;;
33814;SDS011;20121;51.910;8.406;2022-09-11T06:28:31;18.70;;;10.05;;
33814;SDS011;20121;51.910;8.406;2022-09-11T06:30:59;17.88;;;10.15;;
33814;SDS011;20121;51.910;8.406;2022-09-11T06:33:29;23.85;;;11.63;;
33814;SDS011;20121;51.910;8.406;2022-09-11T06:35:59;17.48;;;9.90;;
33814;SDS011;20121;51.910;8.406;2022-09-11T06:38:25;28.83;;;13.75;;
33814;SDS011;20121;51.910;8.406;2022-09-11T06:40:52;19.10;;;10.45;;
33814;SDS011;20121;51.910;8.406;2022-09-11T06:43:18;24.40;;;9.70;;
33814;SDS011;20121;51.910;8.406;2022-09-11T06:45:44;21.60;;;10.27;;
33814;SDS011;20121;51.910;8.406;2022-09-11T06:48:12;17.80;;;10.85;;
33814;SDS011;20121;51.910;8.406;2022-09-11T06:50:39;21.13;;;11.50;;
33814;SDS011;20121;51.910;8.406;2022-09-11T06:53:05;22.13;;;12.63;;
33814;SDS011;20121;51.910;8.406;2022-09-11T06:55:32;27.33;;;11.90;;
33814;SDS011;20121;51.910;8.406;2022-09-11T06:57:59;31.63;;;10.60;;
33814;SDS011;20121;51.910;8.406;2022-09-11T07:00:25;23.50;;;12.00;;
33814;SDS011;20121;51.910;8.406;2022-09-11T07:02:51;23.63;;;11.40;;
33814;SDS011;20121;51.910;8.406;2022-09-11T07:05:21;25.70;;;11.48;;
33814;SDS011;20121;51.910;8.406;2022-09-11T07:07:53;20.02;;;10.60;;
33814;SDS011;20121;51.910;8.406;2022-09-11T07:10:20;22.95;;;11.75;;
33814;SDS011;20121;51.910;8.406;2022-09-11T07:12:46;14.80;;;8.98;;
33814;SDS011;20121;51.910;8.406;2022-09-11T07:15:12;19.60;;;8.68;;
33814;SDS011;20121;51.910;8.406;2022-09-11T07:17:39;17.25;;;8.75;;
33814;SDS011;20121;51.910;8.406;2022-09-11T07:20:05;19.90;;;9.97;;
33814;SDS011;20121;51.910;8.406;2022-09-11T07:22:33;21.98;;;8.80;;
33814;SDS011;20121;51.910;8.406;2022-09-11T07:24:59;21.48;;;9.55;;
33814;SDS011;20121;51.910;8.406;2022-09-11T07:27:25;14.52;;;8.65;;
33814;SDS011;20121;51.910;8.406;2022-09-11T07:29:52;16.42;;;8.73;;
33814;SDS011;20121;51.910;8.406;2022-09-11T07:32:17;10.30;;;7.07;;
33814;SDS011;20121;51.910;8.406;2022-09-11T07:34:43;16.50;;;7.37;;
33814;SDS011;20121;51.910;8.406;2022-09-11T07:37:11;16.92;;;8.32;;
33814;SDS011;20121;51.910;8.406;2022-09-11T07:39:37;17.83;;;9.35;;
33814;SDS011;20121;51.910;8.406;2022-09-11T07:42:03;17.40;;;9.57;;
33814;SDS011;20121;51.910;8.406;2022-09-11T07:44:31;20.23;;;7.75;;
33814;SDS011;20121;51.910;8.406;2022-09-11T07:46:57;13.32;;;7.70;;
33814;SDS011;20121;51.910;8.406;2022-09-11T07:49:24;16.08;;;7.00;;
33814;SDS011;20121;51.910;8.406;2022-09-11T07:51:51;15.00;;;8.88;;
33814;SDS011;20121;51.910;8.406;2022-09-11T07:54:18;20.83;;;9.85;;
33814;SDS011;20121;51.910;8.406;2022-09-11T07:56:44;13.77;;;7.47;;
33814;SDS011;20121;51.910;8.406;2022-09-11T07:59:09;14.87;;;7.60;;
33814;SDS011;20121;51.910;8.406;2022-09-11T08:01:35;24.07;;;8.23;;
33814;SDS011;20121;51.910;8.406;2022-09-11T08:04:02;13.10;;;6.17;;
33814;SDS011;20121;51.910;8.406;2022-09-11T08:06:30;15.95;;;9.38;;
33814;SDS011;20121;51.910;8.406;2022-09-11T08:08:59;20.23;;;7.85;;
33814;SDS011;20121;51.910;8.406;2022-09-11T08:11:27;9.50;;;6.90;;
33814;SDS011;20121;51.910;8.406;2022-09-11T08:13:55;14.55;;;8.13;;
33814;SDS011;20121;51.910;8.406;2022-09-11T08:16:25;19.30;;;8.00;;
33814;SDS011;20121;51.910;8.406;2022-09-11T08:18:52;13.80;;;7.80;;
33814;SDS011;20121;51.910;8.406;2022-09-11T08:21:19;14.73;;;8.43;;
33814;SDS011;20121;51.910;8.406;2022-09-11T08:23:45;13.95;;;8.82;;
33814;SDS011;20121;51.910;8.406;2022-09-11T08:26:13;16.60;;;7.73;;
33814;SDS011;20121;51.910;8.406;2022-09-11T08:28:49;10.02;;;7.45;;
33814;SDS011;20121;51.910;8.406;2022-09-11T08:31:17;11.98;;;6.97;;
33814;SDS011;20121;51.910;8.406;2022-09-11T08:33:46;14.35;;;7.32;;
33814;SDS011;20121;51.910;8.406;2022-09-11T08:36:13;14.43;;;8.27;;
33814;SDS011;20121;51.910;8.406;2022-09-11T08:38:39;11.52;;;6.45;;
33814;SDS011;20121;51.910;8.406;2022-09-11T08:43:49;14.23;;;7.82;;
33814;SDS011;20121;51.910;8.406;2022-09-11T08:46:19;15.23;;;5.78;;
33814;SDS011;20121;51.910;8.406;2022-09-11T08:51:19;11.90;;;6.05;;
33814;SDS011;20121;51.910;8.406;2022-09-11T08:53:45;9.90;;;5.67;;
33814;SDS011;20121;51.910;8.406;2022-09-11T08:56:14;9.10;;;5.30;;
33814;SDS011;20121;51.910;8.406;2022-09-11T09:01:23;7.20;;;5.60;;
33814;SDS011;20121;51.910;8.406;2022-09-11T09:04:05;11.52;;;6.38;;
33814;SDS011;20121;51.910;8.406;2022-09-11T09:07:08;16.92;;;7.13;;
33814;SDS011;20121;51.910;8.406;2022-09-11T09:13:04;8.90;;;5.88;;
33814;SDS011;20121;51.910;8.406;2022-09-11T09:15:52;8.27;;;4.88;;
33814;SDS011;20121;51.910;8.406;2022-09-11T09:19:03;11.57;;;6.00;;
33814;SDS011;20121;51.910;8.406;2022-09-11T09:21:38;9.25;;;5.75;;
33814;SDS011;20121;51.910;8.406;2022-09-11T09:24:17;11.30;;;6.38;;
33814;SDS011;20121;51.910;8.406;2022-09-11T09:26:44;12.25;;;5.65;;
33814;SDS011;20121;51.910;8.406;2022-09-11T09:29:20;10.55;;;5.28;;
33814;SDS011;20121;51.910;8.406;2022-09-11T09:31:49;12.50;;;6.20;;
33814;SDS011;20121;51.910;8.406;2022-09-11T09:34:18;10.63;;;6.90;;
33814;SDS011;20121;51.910;8.406;2022-09-11T09:36:55;5.72;;;4.10;;
33814;SDS011;20121;51.910;8.406;2022-09-11T09:39:25;7.15;;;4.75;;
33814;SDS011;20121;51.910;8.406;2022-09-11T09:42:08;12.32;;;6.78;;
33814;SDS011;20121;51.910;8.406;2022-09-11T09:47:45;10.13;;;5.88;;
33814;SDS011;20121;51.910;8.406;2022-09-11T09:50:17;9.25;;;5.18;;
33814;SDS011;20121;51.910;8.406;2022-09-11T09:52:49;7.85;;;6.30;;
33814;SDS011;20121;51.910;8.406;2022-09-11T09:55:18;6.80;;;4.93;;
33814;SDS011;20121;51.910;8.406;2022-09-11T09:57:44;10.15;;;6.13;;
33814;SDS011;20121;51.910;8.406;2022-09-11T10:00:15;11.10;;;6.50;;
33814;SDS011;20121;51.910;8.406;2022-09-11T10:02:50;6.45;;;5.18;;
33814;SDS011;20121;51.910;8.406;2022-09-11T10:07:55;10.23;;;4.85;;
33814;SDS011;20121;51.910;8.406;2022-09-11T10:10:29;5.22;;;4.03;;
33814;SDS011;20121;51.910;8.406;2022-09-11T10:13:05;7.78;;;5.03;;
33814;SDS011;20121;51.910;8.406;2022-09-11T10:15:52;9.10;;;4.75;;
33814;SDS011;20121;51.910;8.406;2022-09-11T10:18:40;9.98;;;5.35;;
33814;SDS011;20121;51.910;8.406;2022-09-11T10:26:31;7.20;;;4.55;;
33814;SDS011;20121;51.910;8.406;2022-09-11T10:29:11;6.03;;;4.22;;
33814;SDS011;20121;51.910;8.406;2022-09-11T10:34:20;7.70;;;4.55;;
33814;SDS011;20121;51.910;8.406;2022-09-11T10:36:57;7.45;;;4.72;;
33814;SDS011;20121;51.910;8.406;2022-09-11T10:39:26;12.95;;;4.50;;
33814;SDS011;20121;51.910;8.406;2022-09-11T10:41:55;5.20;;;3.95;;
33814;SDS011;20121;51.910;8.406;2022-09-11T10:44:24;5.75;;;4.55;;
33814;SDS011;20121;51.910;8.406;2022-09-11T10:47:01;7.00;;;4.43;;
33814;SDS011;20121;51.910;8.406;2022-09-11T10:49:30;5.75;;;4.20;;
33814;SDS011;20121;51.910;8.406;2022-09-11T10:52:01;11.75;;;4.95;;
33814;SDS011;20121;51.910;8.406;2022-09-11T10:54:33;7.13;;;5.00;;
33814;SDS011;20121;51.910;8.406;2022-09-11T10:57:11;7.85;;;5.30;;
33814;SDS011;20121;51.910;8.406;2022-09-11T10:59:44;9.52;;;4.22;;
33814;SDS011;20121;51.910;8.406;2022-09-11T11:02:22;11.50;;;4.80;;
33814;SDS011;20121;51.910;8.406;2022-09-11T11:05:06;8.73;;;4.15;;
33814;SDS011;20121;51.910;8.406;2022-09-11T11:10:50;10.40;;;4.65;;
33814;SDS011;20121;51.910;8.406;2022-09-11T11:16:20;6.45;;;3.95;;
33814;SDS011;20121;51.910;8.406;2022-09-11T11:29:58;6.22;;;4.43;;
33814;SDS011;20121;51.910;8.406;2022-09-11T11:35:23;8.57;;;5.25;;
33814;SDS011;20121;51.910;8.406;2022-09-11T11:38:10;6.35;;;3.95;;
33814;SDS011;20121;51.910;8.406;2022-09-11T11:40:47;6.50;;;3.58;;
33814;SDS011;20121;51.910;8.406;2022-09-11T11:43:23;8.15;;;3.92;;
33814;SDS011;20121;51.910;8.406;2022-09-11T11:45:56;9.38;;;4.13;;
33814;SDS011;20121;51.910;8.406;2022-09-11T11:51:16;6.95;;;3.58;;
33814;SDS011;20121;51.910;8.406;2022-09-11T11:54:07;9.60;;;4.70;;
33814;SDS011;20121;51.910;8.406;2022-09-11T12:02:04;5.82;;;3.50;;
33814;SDS011;20121;51.910;8.406;2022-09-11T12:07:23;8.38;;;4.25;;
33814;SDS011;20121;51.910;8.406;2022-09-11T12:09:54;4.82;;;3.53;;
33814;SDS011;20121;51.910;8.406;2022-09-11T12:12:23;6.63;;;3.40;;
33814;SDS011;20121;51.910;8.406;2022-09-11T12:15:02;7.30;;;4.35;;
33814;SDS011;20121;51.910;8.406;2022-09-11T12:17:34;4.30;;;3.17;;
33814;SDS011;20121;51.910;8.406;2022-09-11T12:22:45;3.95;;;3.00;;
33814;SDS011;20121;51.910;8.406;2022-09-11T12:30:26;4.20;;;2.90;;
33814;SDS011;20121;51.910;8.406;2022-09-11T12:35:23;8.15;;;3.00;;
33814;SDS011;20121;51.910;8.406;2022-09-11T12:38:32;3.53;;;2.88;;
33814;SDS011;20121;51.910;8.406;2022-09-11T12:41:15;3.13;;;2.83;;
33814;SDS011;20121;51.910;8.406;2022-09-11T12:43:54;5.72;;;2.85;;
33814;SDS011;20121;51.910;8.406;2022-09-11T12:54:13;4.47;;;2.65;;
33814;SDS011;20121;51.910;8.406;2022-09-11T12:56:48;3.65;;;2.50;;
33814;SDS011;20121;51.910;8.406;2022-09-11T12:59:30;2.80;;;2.60;;
33814;SDS011;20121;51.910;8.406;2022-09-11T13:02:50;5.55;;;2.63;;
33814;SDS011;20121;51.910;8.406;2022-09-11T13:05:19;6.80;;;2.22;;
33814;SDS011;20121;51.910;8.406;2022-09-11T13:07:58;2.67;;;2.10;;
33814;SDS011;20121;51.910;8.406;2022-09-11T13:10:36;6.35;;;2.83;;
33814;SDS011;20121;51.910;8.406;2022-09-11T13:13:04;3.42;;;2.30;;
33814;SDS011;20121;51.910;8.406;2022-09-11T13:15:50;6.90;;;2.55;;
33814;SDS011;20121;51.910;8.406;2022-09-11T13:21:11;4.20;;;2.78;;
33814;SDS011;20121;51.910;8.406;2022-09-11T13:23:39;2.33;;;2.08;;
33814;SDS011;20121;51.910;8.406;2022-09-11T13:26:11;2.78;;;2.47;;
33814;SDS011;20121;51.910;8.406;2022-09-11T13:29:04;3.20;;;2.60;;
33814;SDS011;20121;51.910;8.406;2022-09-11T13:31:31;3.50;;;2.20;;
33814;SDS011;20121;51.910;8.406;2022-09-11T13:33:59;5.50;;;2.35;;
33814;SDS011;20121;51.910;8.406;2022-09-11T13:36:28;4.32;;;2.42;;
33814;SDS011;20121;51.910;8.406;2022-09-11T13:38:58;2.05;;;1.85;;
33814;SDS011;20121;51.910;8.406;2022-09-11T13:41:26;2.50;;;1.60;;
33814;SDS011;20121;51.910;8.406;2022-09-11T13:43:58;3.25;;;2.35;;
33814;SDS011;20121;51.910;8.406;2022-09-11T13:46:25;1.67;;;1.50;;
33814;SDS011;20121;51.910;8.406;2022-09-11T13:51:34;2.78;;;2.10;;
33814;SDS011;20121;51.910;8.406;2022-09-11T13:54:14;2.83;;;2.10;;
33814;SDS011;20121;51.910;8.406;2022-09-11T13:59:39;4.28;;;1.77;;
33814;SDS011;20121;51.910;8.406;2022-09-11T14:04:46;3.38;;;2.40;;
33814;SDS011;20121;51.910;8.406;2022-09-11T14:07:22;3.65;;;1.92;;
33814;SDS011;20121;51.910;8.406;2022-09-11T14:09:51;4.70;;;2.78;;
33814;SDS011;20121;51.910;8.406;2022-09-11T14:12:31;2.47;;;2.20;;
33814;SDS011;20121;51.910;8.406;2022-09-11T14:15:10;2.65;;;2.45;;
33814;SDS011;20121;51.910;8.406;2022-09-11T14:17:46;2.22;;;1.90;;
33814;SDS011;20121;51.910;8.406;2022-09-11T14:20:12;2.97;;;1.97;;
33814;SDS011;20121;51.910;8.406;2022-09-11T14:22:44;4.07;;;2.83;;
33814;SDS011;20121;51.910;8.406;2022-09-11T14:27:36;2.57;;;2.37;;
33814;SDS011;20121;51.910;8.406;2022-09-11T14:33:21;2.75;;;2.10;;
33814;SDS011;20121;51.910;8.406;2022-09-11T14:35:48;2.60;;;2.40;;
33814;SDS011;20121;51.910;8.406;2022-09-11T14:38:17;3.08;;;2.08;;
33814;SDS011;20121;51.910;8.406;2022-09-11T14:40:53;2.13;;;1.92;;
33814;SDS011;20121;51.910;8.406;2022-09-11T14:43:23;5.03;;;2.00;;
33814;SDS011;20121;51.910;8.406;2022-09-11T14:45:54;3.17;;;1.90;;
33814;SDS011;20121;51.910;8.406;2022-09-11T14:48:20;3.07;;;2.67;;
33814;SDS011;20121;51.910;8.406;2022-09-11T14:50:46;1.97;;;1.77;;
33814;SDS011;20121;51.910;8.406;2022-09-11T14:53:15;5.87;;;2.80;;
33814;SDS011;20121;51.910;8.406;2022-09-11T14:55:46;8.75;;;2.83;;
33814;SDS011;20121;51.910;8.406;2022-09-11T14:58:11;3.17;;;2.30;;
33814;SDS011;20121;51.910;8.406;2022-09-11T15:00:37;1.93;;;1.63;;
33814;SDS011;20121;51.910;8.406;2022-09-11T15:03:02;2.90;;;2.57;;
33814;SDS011;20121;51.910;8.406;2022-09-11T15:05:28;3.97;;;2.17;;
33814;SDS011;20121;51.910;8.406;2022-09-11T15:07:56;4.30;;;2.60;;
33814;SDS011;20121;51.910;8.406;2022-09-11T15:10:22;3.77;;;2.23;;
33814;SDS011;20121;51.910;8.406;2022-09-11T15:12:47;6.53;;;2.27;;
33814;SDS011;20121;51.910;8.406;2022-09-11T15:15:14;2.90;;;2.10;;
33814;SDS011;20121;51.910;8.406;2022-09-11T15:17:39;4.03;;;2.47;;
33814;SDS011;20121;51.910;8.406;2022-09-11T15:20:05;3.37;;;1.90;;
33814;SDS011;20121;51.910;8.406;2022-09-11T15:22:33;3.03;;;2.47;;
33814;SDS011;20121;51.910;8.406;2022-09-11T15:24:59;2.70;;;2.10;;
33814;SDS011;20121;51.910;8.406;2022-09-11T15:27:25;2.13;;;1.98;;
33814;SDS011;20121;51.910;8.406;2022-09-11T15:29:52;2.00;;;1.90;;
33814;SDS011;20121;51.910;8.406;2022-09-11T15:32:18;2.40;;;2.03;;
33814;SDS011;20121;51.910;8.406;2022-09-11T15:34:45;3.30;;;2.22;;
33814;SDS011;20121;51.910;8.406;2022-09-11T15:37:11;3.10;;;2.15;;
33814;SDS011;20121;51.910;8.406;2022-09-11T15:39:37;2.45;;;2.17;;
33814;SDS011;20121;51.910;8.406;2022-09-11T15:42:03;4.20;;;2.17;;
33814;SDS011;20121;51.910;8.406;2022-09-11T15:44:32;3.58;;;2.92;;
33814;SDS011;20121;51.910;8.406;2022-09-11T15:46:59;2.00;;;1.80;;
33814;SDS011;20121;51.910;8.406;2022-09-11T15:49:27;5.95;;;2.05;;
33814;SDS011;20121;51.910;8.406;2022-09-11T15:51:53;3.60;;;1.92;;
33814;SDS011;20121;51.910;8.406;2022-09-11T15:54:19;1.50;;;1.40;;
33814;SDS011;20121;51.910;8.406;2022-09-11T15:56:47;1.70;;;1.45;;
33814;SDS011;20121;51.910;8.406;2022-09-11T15:59:14;4.28;;;1.35;;
33814;SDS011;20121;51.910;8.406;2022-09-11T16:01:40;1.90;;;1.47;;
33814;SDS011;20121;51.910;8.406;2022-09-11T16:04:07;1.60;;;1.50;;
33814;SDS011;20121;51.910;8.406;2022-09-11T16:06:36;3.08;;;1.95;;
33814;SDS011;20121;51.910;8.406;2022-09-11T16:09:04;2.63;;;1.80;;
33814;SDS011;20121;51.910;8.406;2022-09-11T16:11:32;1.65;;;1.55;;
33814;SDS011;20121;51.910;8.406;2022-09-11T16:13:59;2.40;;;1.52;;
33814;SDS011;20121;51.910;8.406;2022-09-11T16:16:25;2.30;;;1.97;;
33814;SDS011;20121;51.910;8.406;2022-09-11T16:18:51;3.35;;;1.92;;
33814;SDS011;20121;51.910;8.406;2022-09-11T16:21:17;2.93;;;1.70;;
33814;SDS011;20121;51.910;8.406;2022-09-11T16:23:44;1.65;;;1.55;;
33814;SDS011;20121;51.910;8.406;2022-09-11T16:26:11;4.45;;;2.30;;
33814;SDS011;20121;51.910;8.406;2022-09-11T16:28:41;2.53;;;1.73;;
33814;SDS011;20121;51.910;8.406;2022-09-11T16:31:07;3.37;;;1.80;;
33814;SDS011;20121;51.910;8.406;2022-09-11T16:33:33;9.63;;;1.73;;
33814;SDS011;20121;51.910;8.406;2022-09-11T16:36:05;4.45;;;1.88;;
33814;SDS011;20121;51.910;8.406;2022-09-11T16:38:33;3.30;;;1.88;;
33814;SDS011;20121;51.910;8.406;2022-09-11T16:43:44;1.60;;;1.50;;
33814;SDS011;20121;51.910;8.406;2022-09-11T16:46:11;2.58;;;1.85;;
33814;SDS011;20121;51.910;8.406;2022-09-11T16:48:39;1.35;;;1.25;;
33814;SDS011;20121;51.910;8.406;2022-09-11T16:51:05;2.58;;;1.85;;
33814;SDS011;20121;51.910;8.406;2022-09-11T16:53:32;2.70;;;2.50;;
33814;SDS011;20121;51.910;8.406;2022-09-11T16:56:02;1.30;;;1.20;;
33814;SDS011;20121;51.910;8.406;2022-09-11T16:58:32;1.50;;;1.10;;
33814;SDS011;20121;51.910;8.406;2022-09-11T17:01:02;3.42;;;2.20;;
33814;SDS011;20121;51.910;8.406;2022-09-11T17:03:32;1.40;;;1.30;;